Airport View

Enter AWOS ICAO identifier for current METAR.

ex. KFNL

KILG 262351Z 30007KT 10SM SCT043 OVC055 06/M02 A2986 RMK AO2 SLP113 T00611022 10100 20061 53013 $

27 Jan 2020 00:44

Phone: 302-328-1536

Other Area AWOS: KPHL - KMQS - KAPG - KMIV

TAF KILG 262320Z 2700/2724 28008KT P6SM BKN050 FM270100 27007KT P6SM FEW050 FEW100 FM270900 25006KT P6SM BKN100 FM271500 27010G17KT P6SM SCT060 BKN090 FM271800 28011G18KT P6SM SCT040 OVC050 FM272200 29008KT P6SM BKN050